Pagina principale
METAR-TAF:

METAR-TAF

Aeroporti :

Saint-Yan, Francia

latitudine: 46-24-45N, longitudine: 004-00-48E, altezza: 244 m

Osservazione

Il bollettino è stato emesso 35 minuti fa, alle 12:30 UTC
Vento 6 kt da nord-est, variando fra nord e est
Temperature 26°C
Umidità 42%
Pressione 1017 hPa
Visibilità 10 km o più
nessuna nube inferiore a 1500 m e nessun cumulonembo

METAR: LFLN 171230Z AUTO 05006KT 360V080 CAVOK 26/12 Q1017 NOSIG

Ora: 15:05 (13:05 UTC)

Previsione

Il bollettino è stato emesso 2 ore e 5 minuti fa, alle 11:00 UTC
Previsione valida dal 17 alle 12 UTC al 17 alle 21 UTC
Vento 5 kt da nord
Visibilità 10 km o più
nessuna nube inferiore a 1500 m e nessun cumulonembo

TAF: LFLN 171100Z 1712/1721 36005KT CAVOK

Osservazioni e previsioni meteorologiche di più di 4000 aeroporti (messaggi METAR e TAF).

Le stazioni disponibili sono rappresentate dai dischi gialli e rossi sulla carta.

Puntare il mouse per vedere il nome della stazione.

Clicca sopra per visualizzare le osservazioni e previsioni meteorologiche.

Per cambiare la mappa : fare clic sui pulsanti verdi con una croce nera per ingrandire, il pulsante verde con un trattino per diminuire, o sulla freccia verde per le mappe adiacenti.


METAR-TAF: